Ixworth, United Kingdom
Current Conditions -  °F | °C
As of 3:47 PM on Sunday 21 Dec 2014 (Local Time) from EGUL Reporting Station
Scattered Clouds Scattered Clouds  
Wind Chill: 50°   Ceiling: Unl
Heat Index: 50°   Visibility: 6mi
Dew Point: 50°   Wind: 26mph
Humidity: 100%   Direction: 240°WSW
Pressure: 30.12"   Gusts: 38mph
Location:  52.3°N, 0.83°E
Report Text: EGUL 211547Z AUTO 24023G33KT 9999 SCT019 10/10 A3012 RMK AO2
Loading
Personal Weather Stations






























Interactive Weather Map New forecast layout! Learn more

10-Day Weather Forecast

Advertisements
Track Severe Weather on mobile